Time;durP1;ratioP1;P1;durP2;ratioP2;P2;SDS_P1;SDS_P2;PMS_P1;PMS_P2;Temp;Humidity;BMP_temperature;BMP_pressure;BME280_temperature;BME280_humidity;BME280_pressure;Samples;Min_cycle;Max_cycle;Signal;HPM_P1;HPM_P2
2024/04/09 00:02:22;;;;;;;0.00;0.00;;;;;;;;;;6688087;21;19998;-89
2024/04/09 00:04:48;;;;;;;0.00;0.00;;;15.60;99.90;;;;;;6690609;21;19990;-89
2024/04/09 00:07:13;;;;;;;0.00;0.00;;;;;;;;;;6738794;21;19990;-89
2024/04/09 00:09:45;;;;;;;0.00;0.00;;;15.50;99.90;;;;;;6692819;21;20411;-90
2024/04/09 00:12:11;;;;;;;0.00;0.00;;;15.70;99.90;;;;;;6739964;21;19999;-88
2024/04/09 00:14:47;;;;;;;0.00;0.00;;;15.60;99.90;;;;;;6692265;21;20416;-89
2024/04/09 00:17:19;;;;;;;0.00;0.00;;;15.40;99.90;;;;;;6739533;21;20043;-89
2024/04/09 00:19:48;;;;;;;0.00;0.00;;;15.50;99.90;;;;;;6691429;21;19997;-90
2024/04/09 00:22:14;;;;;;;0.00;0.00;;;15.50;99.90;;;;;;6691238;21;19998;-89
2024/04/09 00:24:40;;;;;;;0.00;0.00;;;15.50;99.90;;;;;;6741056;21;19990;-90
2024/04/09 00:27:06;;;;;;;0.00;0.00;;;;;;;;;;6692469;21;19994;-88
2024/04/09 00:29:34;;;;;;;0.00;0.00;;;15.50;99.90;;;;;;6691577;21;20694;-87
2024/04/09 00:32:00;;;;;;;0.00;0.00;;;15.60;99.90;;;;;;6738770;21;20422;-90
2024/04/09 00:34:26;;;;;;;0.00;0.00;;;;;;;;;;6691663;21;19986;-88
2024/04/09 00:36:52;;;;;;;0.00;0.00;;;;;;;;;;6693063;21;19994;-90
2024/04/09 00:39:22;;;;;;;0.00;0.00;;;15.50;99.90;;;;;;6692145;21;19994;-91
2024/04/09 00:41:48;;;;;;;0.00;0.00;;;15.60;99.90;;;;;;6693007;21;20006;-87
2024/04/09 00:44:14;;;;;;;0.00;0.00;;;15.60;99.90;;;;;;6744268;21;19994;-87
2024/04/09 00:46:40;;;;;;;0.00;0.00;;;15.60;99.90;;;;;;6744416;21;19995;-87
2024/04/09 00:49:08;;;;;;;0.00;0.00;;;;;;;;;;6744193;21;20063;-88
2024/04/09 00:51:34;;;;;;;0.00;0.00;;;;;;;;;;6694533;21;20001;-86
2024/04/09 00:54:00;;;;;;;0.00;0.00;;;15.70;99.90;;;;;;6694708;21;20310;-88
2024/04/09 00:56:27;;;;;;;0.00;0.00;;;15.40;99.90;;;;;;6691966;21;19994;-88
2024/04/09 00:58:53;;;;;;;0.00;0.00;;;15.70;99.90;;;;;;6691233;21;19994;-85
2024/04/09 01:01:19;;;;;;;0.00;0.00;;;15.70;99.90;;;;;;6691184;21;20002;-87
2024/04/09 01:03:45;;;;;;;0.00;0.00;;;15.70;99.90;;;;;;6693345;21;19998;-87
2024/04/09 01:06:11;;;;;;;0.00;0.00;;;15.80;99.90;;;;;;6692661;21;20001;-88
2024/04/09 01:08:37;;;;;;;0.00;0.00;;;16.10;99.90;;;;;;6691201;21;20455;-87
2024/04/09 01:11:03;;;;;;;0.00;0.00;;;;;;;;;;6692063;21;20005;-88
2024/04/09 01:13:28;;;;;;;0.00;0.00;;;15.80;99.90;;;;;;6693015;21;20304;-88
2024/04/09 01:15:54;;;;;;;0.00;0.00;;;;;;;;;;6692373;21;19998;-88
2024/04/09 01:18:20;;;;;;;0.00;0.00;;;;;;;;;;6691020;21;19998;-88
2024/04/09 01:20:46;;;;;;;0.00;0.00;;;;;;;;;;6692979;21;20311;-88
2024/04/09 01:23:12;;;;;;;0.00;0.00;;;16.00;99.90;;;;;;6692423;21;20059;-87
2024/04/09 01:25:38;;;;;;;0.00;0.00;;;;;;;;;;6695729;21;19998;-87
2024/04/09 01:28:04;;;;;;;0.00;0.00;;;16.20;99.90;;;;;;6694312;21;19991;-87
2024/04/09 01:30:30;;;;;;;0.00;0.00;;;;;;;;;;6743602;21;20002;-86
2024/04/09 01:32:55;;;;;;;0.00;0.00;;;16.20;99.90;;;;;;6695276;21;20001;-87
2024/04/09 01:35:23;;;;;;;0.00;0.00;;;;;;;;;;6695904;21;19991;-87
2024/04/09 01:37:48;;;;;;;0.00;0.00;;;16.20;99.90;;;;;;6743412;21;19994;-86
2024/04/09 01:40:15;;;;;;;0.00;0.00;;;16.20;99.90;;;;;;6695167;21;19994;-86
2024/04/09 01:42:41;;;;;;;0.00;0.00;;;16.00;99.90;;;;;;6695356;21;19994;-87
2024/04/09 01:45:07;;;;;;;0.00;0.00;;;15.80;99.90;;;;;;6743308;21;20063;-87
2024/04/09 01:47:33;;;;;;;0.00;0.00;;;;;;;;;;6694986;21;20387;-87
2024/04/09 01:49:59;;;;;;;0.00;0.00;;;16.10;99.90;;;;;;6692261;21;20318;-90
2024/04/09 01:52:25;;;;;;;0.00;0.00;;;;;;;;;;6694779;21;20001;-87
2024/04/09 01:54:51;;;;;;;0.00;0.00;;;15.80;99.90;;;;;;6696301;21;19995;-88
2024/04/09 01:57:17;;;;;;;0.00;0.00;;;;;;;;;;6696429;21;20059;-89
2024/04/09 01:59:43;;;;;;;0.00;0.00;;;;;;;;;;6692290;21;19999;-90
2024/04/09 02:02:10;;;;;;;0.00;0.00;;;15.80;99.90;;;;;;6691450;21;20002;-88
2024/04/09 02:04:36;;;;;;;0.00;0.00;;;15.70;99.90;;;;;;6739759;21;19990;-89
2024/04/09 02:07:02;;;;;;;0.00;0.00;;;;;;;;;;6690460;21;20484;-88
2024/04/09 02:09:27;;;;;;;0.00;0.00;;;15.80;99.90;;;;;;6691389;21;19990;-88
2024/04/09 02:11:53;;;;;;;0.00;0.00;;;;;;;;;;6689844;21;19986;-90
2024/04/09 02:14:19;;;;;;;0.00;0.00;;;15.80;99.90;;;;;;6691102;21;19987;-89
2024/04/09 02:16:45;;;;;;;0.00;0.00;;;15.80;99.90;;;;;;6691235;21;20292;-88
2024/04/09 02:19:12;;;;;;;0.00;0.00;;;15.80;99.90;;;;;;6690951;21;20071;-91
2024/04/09 02:21:37;;;;;;;0.00;0.00;;;15.80;99.90;;;;;;6690589;21;19994;-89
2024/04/09 02:24:03;;;;;;;0.00;0.00;;;;;;;;;;6690913;21;20000;-89
2024/04/09 02:26:29;;;;;;;0.00;0.00;;;;;;;;;;6688707;21;20347;-90
2024/04/09 02:28:55;;;;;;;0.00;0.00;;;15.80;99.90;;;;;;6688739;21;20335;-90
2024/04/09 02:31:21;;;;;;;0.00;0.00;;;15.80;99.90;;;;;;6736966;21;19987;-89
2024/04/09 02:33:47;;;;;;;0.00;0.00;;;16.10;99.90;;;;;;6691603;21;19986;-90
2024/04/09 02:36:13;;;;;;;0.00;0.00;;;;;;;;;;6738435;21;20044;-89
2024/04/09 02:38:39;;;;;;;0.00;0.00;;;;;;;;;;6690250;21;20002;-89
2024/04/09 02:41:06;;;;;;;0.00;0.00;;;15.90;99.90;;;;;;6691144;21;19994;-90
2024/04/09 02:43:32;;;;;;;0.00;0.00;;;16.40;99.90;;;;;;6690568;21;20416;-89
2024/04/09 02:46:01;;;;;;;0.00;0.00;;;15.80;99.90;;;;;;6738294;21;20430;-90
2024/04/09 02:48:27;;;;;;;0.00;0.00;;;15.90;99.90;;;;;;6689285;21;19990;-90
2024/04/09 02:50:58;;;;;;;0.00;0.00;;;15.90;99.90;;;;;;6690058;21;20071;-88
2024/04/09 02:53:24;;;;;;;0.00;0.00;;;15.90;99.90;;;;;;6692056;21;20488;-89
2024/04/09 02:56:03;;;;;;;0.00;0.00;;;15.90;99.90;;;;;;6690129;21;19994;-89
2024/04/09 02:58:29;;;;;;;0.00;0.00;;;;;;;;;;6689349;21;20011;-88
2024/04/09 03:00:56;;;;;;;0.00;0.00;;;16.00;99.90;;;;;;6739178;21;19995;-89
2024/04/09 03:03:21;;;;;;;0.00;0.00;;;15.90;99.90;;;;;;6690746;21;20001;-90
2024/04/09 03:05:47;;;;;;;0.00;0.00;;;15.80;99.90;;;;;;6691195;21;19991;-90
2024/04/09 03:08:12;;;;;;;0.00;0.00;;;;;;;;;;6690293;21;20001;-88
2024/04/09 03:10:38;;;;;;;0.00;0.00;;;;;;;;;;6690849;21;20422;-88
2024/04/09 03:13:04;;;;;;;0.05;0.05;;;15.90;99.90;;;;;;6691544;21;20005;-88
2024/04/09 03:15:31;;;;;;;0.00;0.00;;;;;;;;;;6689805;21;20001;-88
2024/04/09 03:17:57;;;;;;;0.00;0.00;;;15.80;99.90;;;;;;6691563;21;20427;-88
2024/04/09 03:20:23;;;;;;;0.00;0.00;;;;;;;;;;6688526;21;19997;-88
2024/04/09 03:22:49;;;;;;;0.00;0.00;;;;;;;;;;6690057;21;20059;-89
2024/04/09 03:25:15;;;;;;;0.00;0.00;;;15.70;99.90;;;;;;6689466;21;20485;-89
2024/04/09 03:27:41;;;;;;;0.00;0.00;;;;;;;;;;6687990;21;19998;-89
2024/04/09 03:30:09;;;;;;;0.00;0.00;;;;;;;;;;6690830;21;19994;-89
2024/04/09 03:32:34;;;;;;;0.00;0.00;;;15.60;99.90;;;;;;6739365;21;20005;-89
2024/04/09 03:35:00;;;;;;;0.00;0.00;;;15.60;99.90;;;;;;6690515;21;19994;-91
2024/04/09 03:37:26;;;;;;;0.00;0.00;;;;;;;;;;6690317;21;20346;-90
2024/04/09 03:39:52;;;;;;;0.00;0.00;;;15.50;99.90;;;;;;6689453;21;20037;-90
2024/04/09 03:42:18;;;;;;;0.00;0.00;;;;;;;;;;6689730;21;20006;-89
2024/04/09 03:44:44;;;;;;;0.00;0.00;;;;;;;;;;6692398;21;20006;-89
2024/04/09 03:47:09;;;;;;;0.00;0.00;;;15.50;99.90;;;;;;6692940;21;19994;-88
2024/04/09 03:49:35;;;;;;;0.00;0.00;;;;;;;;;;6692509;21;20386;-89
2024/04/09 03:52:01;;;;;;;0.00;0.00;;;15.30;99.90;;;;;;6693000;21;20339;-90
2024/04/09 03:54:27;;;;;;;0.00;0.00;;;15.30;99.90;;;;;;6692799;21;20412;-90
2024/04/09 03:56:53;;;;;;;0.00;0.00;;;;;;;;;;6692693;21;20001;-90
2024/04/09 03:59:19;;;;;;;0.00;0.00;;;15.30;99.90;;;;;;6692439;21;20040;-90
2024/04/09 04:01:45;;;;;;;0.00;0.00;;;;;;;;;;6693025;21;19994;-89
2024/04/09 04:04:13;;;;;;;0.00;0.00;;;;;;;;;;6693805;21;20317;-89
2024/04/09 04:06:38;;;;;;;0.00;0.00;;;15.50;99.90;;;;;;6694048;21;19994;-89
2024/04/09 04:09:04;;;;;;;0.00;0.00;;;;;;;;;;6744181;21;20067;-89
2024/04/09 04:11:33;;;;;;;0.00;0.00;;;15.50;99.90;;;;;;6692288;21;19998;-90
2024/04/09 04:13:59;;;;;;;0.00;0.00;;;;;;;;;;6695019;21;19998;-88
2024/04/09 04:16:25;;;;;;;0.00;0.00;;;;;;;;;;6695342;21;20009;-88
2024/04/09 04:18:51;;;;;;;0.00;0.00;;;;;;;;;;6691434;21;20060;-90
2024/04/09 04:21:21;;;;;;;0.00;0.00;;;15.60;99.90;;;;;;6692508;21;20025;-89
2024/04/09 04:23:51;;;;;;;0.00;0.00;;;15.60;99.90;;;;;;6693467;21;19994;-89
2024/04/09 04:26:19;;;;;;;0.00;0.00;;;15.60;99.90;;;;;;6695790;21;19990;-90
2024/04/09 04:28:45;;;;;;;0.00;0.00;;;15.70;99.90;;;;;;6694292;21;19994;-88
2024/04/09 04:31:18;;;;;;;0.00;0.00;;;15.60;99.90;;;;;;6694711;21;19994;-89
2024/04/09 04:33:44;;;;;;;0.00;0.00;;;15.70;99.90;;;;;;6695691;21;20030;-89
2024/04/09 04:36:11;;;;;;;0.00;0.00;;;15.70;99.90;;;;;;6742661;21;20424;-90
2024/04/09 04:38:38;;;;;;;0.00;0.00;;;15.70;99.90;;;;;;6693858;21;19990;-90
2024/04/09 04:41:04;;;;;;;0.00;0.00;;;15.60;99.90;;;;;;6692273;21;20411;-89
2024/04/09 04:43:31;;;;;;;0.00;0.00;;;15.80;99.90;;;;;;6741704;21;20067;-90
2024/04/09 04:45:56;;;;;;;0.00;0.00;;;15.80;99.90;;;;;;6693817;21;20002;-90
2024/04/09 04:48:23;;;;;;;0.00;0.00;;;;;;;;;;6693752;21;20057;-89
2024/04/09 04:50:49;;;;;;;0.05;0.05;;;15.90;99.90;;;;;;6694006;21;20066;-89
2024/04/09 04:53:15;;;;;;;0.00;0.00;;;;;;;;;;6693657;21;19986;-89
2024/04/09 04:55:41;;;;;;;0.00;0.00;;;16.00;99.90;;;;;;6693806;21;20304;-89
2024/04/09 04:58:07;;;;;;;0.00;0.00;;;;;;;;;;6694689;21;20044;-89
2024/04/09 05:00:35;;;;;;;0.00;0.00;;;16.10;99.90;;;;;;6693533;21;19994;-90
2024/04/09 05:03:01;;;;;;;0.00;0.00;;;16.10;99.90;;;;;;6693208;21;20006;-88
2024/04/09 05:05:28;;;;;;;0.00;0.00;;;16.10;99.90;;;;;;6694062;21;20004;-90
2024/04/09 05:07:54;;;;;;;0.00;0.00;;;16.20;99.90;;;;;;6695081;21;19995;-90
2024/04/09 05:10:20;;;;;;;0.00;0.00;;;16.20;99.90;;;;;;6693688;21;20345;-88
2024/04/09 05:12:47;;;;;;;0.00;0.00;;;16.20;99.90;;;;;;6694969;21;20361;-90
2024/04/09 05:15:13;;;;;;;0.00;0.00;;;16.20;99.90;;;;;;6694394;21;20002;-89
2024/04/09 05:17:39;;;;;;;0.00;0.00;;;;;;;;;;6693484;21;20002;-87
2024/04/09 05:20:14;;;;;;;0.00;0.00;;;16.30;99.90;;;;;;6742906;21;20005;-90
2024/04/09 05:22:44;;;;;;;0.00;0.00;;;16.30;99.90;;;;;;6693016;21;20280;-89
2024/04/09 05:25:11;;;;;;;0.00;0.00;;;16.40;99.90;;;;;;6692543;21;19997;-90
2024/04/09 05:27:37;;;;;;;0.00;0.00;;;16.40;99.90;;;;;;6693792;21;20071;-89
2024/04/09 05:30:03;;;;;;;0.00;0.00;;;16.40;99.90;;;;;;6694762;21;20412;-90
2024/04/09 05:32:28;;;;;;;0.00;0.00;;;16.40;99.90;;;;;;6694124;21;20026;-90
2024/04/09 05:34:54;;;;;;;0.00;0.00;;;16.40;99.90;;;;;;6742546;21;20296;-88
2024/04/09 05:37:20;;;;;;;0.00;0.00;;;;;;;;;;6742715;21;20001;-89
2024/04/09 05:39:47;;;;;;;0.00;0.00;;;;;;;;;;6694031;21;19997;-89
2024/04/09 05:42:13;;;;;;;0.00;0.00;;;16.40;99.90;;;;;;6694390;21;19995;-88
2024/04/09 05:44:39;;;;;;;0.00;0.00;;;16.40;99.90;;;;;;6692121;21;19998;-89
2024/04/09 05:47:05;;;;;;;0.00;0.00;;;16.30;99.90;;;;;;6693455;21;19990;-89
2024/04/09 05:49:31;;;;;;;0.00;0.00;;;16.40;99.90;;;;;;6741690;21;19990;-89
2024/04/09 05:51:56;;;;;;;0.00;0.00;;;16.40;99.90;;;;;;6648148;21;19990;-88
2024/04/09 05:54:22;;;;;;;0.00;0.00;;;;;;;;;;6693990;21;20001;-89
2024/04/09 05:56:48;;;;;;;0.00;0.00;;;16.60;99.90;;;;;;6691574;21;19990;-89
2024/04/09 05:59:14;;;;;;;0.00;0.00;;;16.60;99.90;;;;;;6741140;21;20002;-88
2024/04/09 06:01:40;;;;;;;0.00;0.00;;;;;;;;;;6692543;21;19991;-88
2024/04/09 06:04:06;;;;;;;0.00;0.00;;;16.70;99.90;;;;;;6692426;21;20005;-90
2024/04/09 06:06:32;;;;;;;0.00;0.00;;;;;;;;;;6692983;21;19990;-89
2024/04/09 06:08:58;;;;;;;0.00;0.00;;;;;;;;;;6694038;21;20067;-89
2024/04/09 06:11:24;;;;;;;0.00;0.00;;;;;;;;;;6693943;21;19995;-89
2024/04/09 06:13:55;;;;;;;0.00;0.00;;;16.80;99.90;;;;;;6740532;21;19986;-89
2024/04/09 06:16:21;;;;;;;0.00;0.00;;;16.80;99.90;;;;;;6693732;21;20056;-88
2024/04/09 06:18:47;;;;;;;0.00;0.00;;;;;;;;;;6692063;21;20443;-89
2024/04/09 06:21:13;;;;;;;0.00;0.00;;;16.80;99.90;;;;;;6693294;21;20964;-89
2024/04/09 06:23:39;;;;;;;0.00;0.00;;;16.70;99.90;;;;;;6692879;21;19994;-90
2024/04/09 06:26:05;;;;;;;0.00;0.00;;;;;;;;;;6692949;21;20013;-89
2024/04/09 06:28:31;;;;;;;0.00;0.00;;;16.80;99.90;;;;;;6691752;21;20063;-90
2024/04/09 06:30:57;;;;;;;0.00;0.00;;;;;;;;;;6741871;21;19994;-88
2024/04/09 06:33:22;;;;;;;0.00;0.00;;;16.80;99.90;;;;;;6692644;21;20308;-89
2024/04/09 06:35:49;;;;;;;0.00;0.00;;;;;;;;;;6692961;21;19990;-89
2024/04/09 06:38:17;;;;;;;0.00;0.00;;;16.80;99.90;;;;;;6739771;21;20435;-90
2024/04/09 06:40:46;;;;;;;0.00;0.00;;;;;;;;;;6693833;21;20407;-88
2024/04/09 06:43:11;;;;;;;0.00;0.00;;;16.90;99.90;;;;;;6692225;21;20005;-90
2024/04/09 06:45:37;;;;;;;0.00;0.00;;;16.90;99.90;;;;;;6693401;21;19994;-89
2024/04/09 06:48:05;;;;;;;0.00;0.00;;;16.90;99.90;;;;;;6693006;21;19999;-86
2024/04/09 06:50:31;;;;;;;0.00;0.00;;;17.00;99.90;;;;;;6696483;21;20303;-88
2024/04/09 06:52:57;;;;;;;0.00;0.00;;;;;;;;;;6694356;21;19994;-89
2024/04/09 06:55:22;;;;;;;0.00;0.00;;;17.00;99.90;;;;;;6694091;21;20006;-88
2024/04/09 06:57:48;;;;;;;0.00;0.00;;;;;;;;;;6740502;21;20416;-88
2024/04/09 07:00:14;;;;;;;0.00;0.00;;;17.10;99.90;;;;;;6706934;21;20035;-88
2024/04/09 07:02:43;;;;;;;0.00;0.00;;;17.10;99.90;;;;;;6715291;21;19990;-89
2024/04/09 07:05:09;;;;;;;0.00;0.00;;;;;;;;;;6697257;21;19994;-88
2024/04/09 07:07:35;;;;;;;0.00;0.00;;;;;;;;;;6740739;21;20005;-89
2024/04/09 07:10:02;;;;;;;0.00;0.00;;;17.10;99.90;;;;;;6693428;21;20395;-88
2024/04/09 07:12:28;;;;;;;0.00;0.00;;;17.00;99.90;;;;;;6693152;21;20006;-88
2024/04/09 07:14:54;;;;;;;0.00;0.00;;;;;;;;;;6693474;21;20067;-88
2024/04/09 07:17:19;;;;;;;0.00;0.00;;;17.00;99.90;;;;;;6741901;21;19987;-88
2024/04/09 07:19:46;;;;;;;0.00;0.00;;;;;;;;;;6694936;21;20536;-89
2024/04/09 07:22:11;;;;;;;0.00;0.00;;;17.10;99.90;;;;;;6743031;21;20414;-88
2024/04/09 07:24:37;;;;;;;0.00;0.00;;;;;;;;;;6693521;21;19990;-88
2024/04/09 07:27:03;;;;;;;0.00;0.00;;;17.30;99.90;;;;;;6696004;21;20063;-89
2024/04/09 07:29:31;;;;;;;0.00;0.00;;;;;;;;;;6696019;21;20404;-88
2024/04/09 07:31:56;;;;;;;0.00;0.00;;;17.30;99.90;;;;;;6696846;21;20009;-89
2024/04/09 07:34:23;;;;;;;0.00;0.00;;;17.30;99.90;;;;;;6696122;21;20412;-88
2024/04/09 07:36:49;;;;;;;0.00;0.00;;;17.40;99.90;;;;;;6696590;21;19987;-89
2024/04/09 07:39:15;;;;;;;0.00;0.00;;;;;;;;;;6693951;21;20356;-88
2024/04/09 07:41:41;;;;;;;0.00;0.00;;;17.70;99.90;;;;;;6696348;21;19987;-88
2024/04/09 07:44:07;;;;;;;0.00;0.00;;;17.60;99.90;;;;;;6694619;21;19994;-89
2024/04/09 07:46:32;;;;;;;0.00;0.00;;;17.50;99.90;;;;;;6695656;21;19990;-88
2024/04/09 07:49:04;;;;;;;0.00;0.00;;;;;;;;;;6695623;21;19987;-88
2024/04/09 07:51:30;;;;;;;0.00;0.00;;;17.70;99.90;;;;;;6744307;21;20446;-88
2024/04/09 07:53:56;;;;;;;0.00;0.00;;;;;;;;;;6694571;21;19994;-88
2024/04/09 07:56:22;;;;;;;0.00;0.00;;;17.70;99.90;;;;;;6695290;21;20030;-88
2024/04/09 07:58:47;;;;;;;0.00;0.00;;;17.60;99.90;;;;;;6694418;21;20001;-89
2024/04/09 08:01:13;;;;;;;0.00;0.00;;;17.50;99.90;;;;;;6694401;21;20299;-89
2024/04/09 08:03:39;;;;;;;0.00;0.00;;;;;;;;;;6694242;21;20399;-88
2024/04/09 08:06:06;;;;;;;0.00;0.00;;;17.60;99.90;;;;;;6695647;21;20295;-89
2024/04/09 08:08:32;;;;;;;0.00;0.00;;;17.60;99.90;;;;;;6654700;21;19997;-88
2024/04/09 08:10:58;;;;;;;0.00;0.00;;;;;;;;;;6697344;21;20295;-88
2024/04/09 08:13:23;;;;;;;0.00;0.00;;;17.60;99.90;;;;;;6695311;21;20032;-91
2024/04/09 08:15:52;;;;;;;0.00;0.00;;;17.40;99.90;;;;;;6694119;21;20002;-88
2024/04/09 08:18:18;;;;;;;0.00;0.00;;;;;;;;;;6743334;21;20018;-90
2024/04/09 08:20:44;;;;;;;0.00;0.00;;;;;;;;;;6696452;21;20702;-89
2024/04/09 08:23:10;;;;;;;0.00;0.00;;;17.50;99.90;;;;;;6695729;21;19990;-89
2024/04/09 08:25:36;;;;;;;0.00;0.00;;;17.60;99.90;;;;;;6696231;21;19987;-88
2024/04/09 08:28:02;;;;;;;0.00;0.00;;;17.70;99.90;;;;;;6694915;21;19998;-89
2024/04/09 08:30:28;;;;;;;0.00;0.00;;;;;;;;;;6696090;21;20077;-89
2024/04/09 08:32:55;;;;;;;0.00;0.00;;;;;;;;;;6695500;21;20006;-89
2024/04/09 08:35:20;;;;;;;0.00;0.00;;;17.70;99.90;;;;;;6742570;21;19994;-88
2024/04/09 08:37:46;;;;;;;0.00;0.00;;;;;;;;;;6695918;21;20001;-89
2024/04/09 08:40:13;;;;;;;0.00;0.00;;;;;;;;;;6696761;21;20423;-90
2024/04/09 08:42:39;;;;;;;0.00;0.00;;;17.70;99.90;;;;;;6749912;21;19990;-87
2024/04/09 08:45:14;;;;;;;0.00;0.00;;;17.70;99.90;;;;;;6699557;21;19998;-87
2024/04/09 08:47:47;;;;;;;0.00;0.00;;;17.80;99.90;;;;;;6698908;21;19998;-89
2024/04/09 08:50:13;;;;;;;0.00;0.00;;;17.70;99.90;;;;;;6700109;21;20404;-86
2024/04/09 08:52:38;;;;;;;0.00;0.00;;;17.60;99.90;;;;;;6701265;21;19990;-89
2024/04/09 08:55:06;;;;;;;0.00;0.00;;;17.40;99.90;;;;;;6696991;21;20067;-90
2024/04/09 08:57:32;;;;;;;0.00;0.00;;;17.50;99.90;;;;;;6741688;21;20424;-88
2024/04/09 09:00:00;;;;;;;0.00;0.00;;;;;;;;;;6692338;21;19991;-91
2024/04/09 09:02:25;;;;;;;0.00;0.00;;;17.50;99.90;;;;;;6692641;21;19990;-90
2024/04/09 09:04:51;;;;;;;0.00;0.00;;;17.60;99.90;;;;;;6692420;21;19992;-90
2024/04/09 09:07:22;;;;;;;0.00;0.00;;;17.90;99.90;;;;;;6692568;21;19995;-89
2024/04/09 09:09:48;;;;;;;0.00;0.00;;;17.90;99.90;;;;;;6693534;21;20412;-91
2024/04/09 09:12:14;;;;;;;0.00;0.00;;;18.00;99.90;;;;;;6698004;21;20001;-87
2024/04/09 09:14:53;;;;;;;0.00;0.00;;;18.10;99.90;;;;;;6697058;21;20002;-88
2024/04/09 09:17:18;;;;;;;0.00;0.00;;;18.20;99.90;;;;;;6697439;21;20044;-87
2024/04/09 09:19:44;;;;;;;0.00;0.00;;;18.20;99.90;;;;;;6695012;21;19994;-87
2024/04/09 09:22:11;;;;;;;0.00;0.00;;;18.20;99.90;;;;;;6697547;21;19998;-87
2024/04/09 09:24:37;;;;;;;0.00;0.00;;;18.20;99.90;;;;;;6696046;21;20006;-89
2024/04/09 09:27:05;;;;;;;0.00;0.00;;;18.30;99.90;;;;;;6697015;21;20034;-87
2024/04/09 09:29:32;;;;;;;0.00;0.00;;;18.20;99.90;;;;;;6696230;21;19990;-88
2024/04/09 09:31:59;;;;;;;0.00;0.00;;;18.20;99.90;;;;;;6697253;21;19993;-86
2024/04/09 09:34:36;;;;;;;0.00;0.00;;;18.20;99.90;;;;;;6696314;21;20001;-86
2024/04/09 09:37:06;;;;;;;0.00;0.00;;;17.90;99.90;;;;;;6697177;21;20006;-87
2024/04/09 09:39:35;;;;;;;0.00;0.00;;;19.30;99.90;;;;;;6695468;21;20002;-87
2024/04/09 09:42:01;;;;;;;0.00;0.00;;;;;;;;;;6695706;21;20430;-88
2024/04/09 09:44:29;;;;;;;0.00;0.00;;;17.30;99.90;;;;;;6695674;21;20369;-88
2024/04/09 09:46:56;;;;;;;0.00;0.00;;;17.00;99.90;;;;;;6743574;21;20303;-88
2024/04/09 09:49:23;;;;;;;0.00;0.00;;;17.00;99.90;;;;;;6650804;21;19986;-88
2024/04/09 09:51:50;;;;;;;0.00;0.00;;;16.80;99.90;;;;;;6696000;21;19991;-88
2024/04/09 09:54:15;;;;;;;0.00;0.00;;;16.40;99.90;;;;;;6695343;21;20002;-88
2024/04/09 09:56:42;;;;;;;0.00;0.00;;;16.30;99.90;;;;;;6696106;21;19994;-86
2024/04/09 09:59:10;;;;;;;0.00;0.00;;;16.30;99.90;;;;;;6696263;21;19994;-89
2024/04/09 10:01:37;;;;;;;0.00;0.00;;;16.20;99.90;;;;;;6695535;21;20009;-86
2024/04/09 10:04:06;;;;;;;0.00;0.00;;;16.20;99.90;;;;;;6696589;21;20273;-89
2024/04/09 10:06:32;;;;;;;0.00;0.00;;;16.20;99.90;;;;;;6695309;21;19995;-87
2024/04/09 10:09:05;;;;;;;0.00;0.00;;;16.10;99.90;;;;;;6695348;21;19990;-87
2024/04/09 10:11:32;;;;;;;0.00;0.00;;;16.10;99.90;;;;;;6695619;21;20012;-88
2024/04/09 10:14:02;;;;;;;0.00;0.00;;;15.80;99.90;;;;;;6695338;21;20316;-88
2024/04/09 10:16:28;;;;;;;0.00;0.00;;;;;;;;;;6695467;21;19994;-86
2024/04/09 10:18:54;;;;;;;0.00;0.00;;;;;;;;;;6695829;21;19994;-88
2024/04/09 10:21:27;;;;;;;0.00;0.00;;;15.80;99.90;;;;;;6694746;21;20410;-87
2024/04/09 10:23:58;;;;;;;0.00;0.00;;;15.70;99.90;;;;;;6694755;21;20001;-89
2024/04/09 10:26:25;;;;;;;0.00;0.00;;;15.70;99.90;;;;;;6693573;21;20439;-90
2024/04/09 10:29:01;;;;;;;0.00;0.00;;;15.70;99.90;;;;;;6693197;21;20005;-87
2024/04/09 10:31:29;;;;;;;0.00;0.00;;;15.60;99.90;;;;;;6693996;21;20033;-87
2024/04/09 10:33:58;;;;;;;0.00;0.00;;;15.40;99.90;;;;;;6695032;21;20005;-87
2024/04/09 10:36:24;;;;;;;0.00;0.00;;;;;;;;;;6696490;21;19991;-89
2024/04/09 10:38:50;;;;;;;0.00;0.00;;;15.30;99.90;;;;;;6695900;21;20001;-87
2024/04/09 10:41:16;;;;;;;0.00;0.00;;;15.50;99.90;;;;;;6743300;21;20426;-88
2024/04/09 10:43:42;;;;;;;0.00;0.00;;;;;;;;;;6695862;21;20002;-87
2024/04/09 10:46:08;;;;;;;0.00;0.00;;;15.30;99.90;;;;;;6694699;21;19990;-87
2024/04/09 10:48:34;;;;;;;0.00;0.00;;;;;;;;;;6695038;21;20245;-87
2024/04/09 10:51:00;;;;;;;0.00;0.00;;;15.20;99.90;;;;;;6694414;21;19994;-87
2024/04/09 10:53:26;;;;;;;0.00;0.00;;;;;;;;;;6697983;21;19987;-88
2024/04/09 10:56:03;;;;;;;0.00;0.00;;;15.10;99.90;;;;;;6695125;21;19991;-88
2024/04/09 10:58:28;;;;;;;0.00;0.00;;;15.20;99.90;;;;;;6694325;21;20028;-87
2024/04/09 11:00:54;;;;;;;0.00;0.00;;;15.20;99.40;;;;;;6694772;21;20339;-87
2024/04/09 11:03:21;;;;;;;0.00;0.00;;;15.10;98.60;;;;;;6743818;21;20503;-87
2024/04/09 11:05:51;;;;;;;0.00;0.00;;;15.00;99.30;;;;;;6694715;21;20006;-87
2024/04/09 11:08:30;;;;;;;;;;;14.80;99.50;;;;;;6745475;21;19990;-88
2024/04/09 11:10:57;;;;;;;0.00;0.00;;;;;;;;;;6695231;21;19926;-89
2024/04/09 11:13:23;;;;;;;0.00;0.00;;;14.80;99.20;;;;;;6743041;21;19998;-88
2024/04/09 11:15:49;;;;;;;0.00;0.00;;;;;;;;;;6695993;21;19998;-87
2024/04/09 11:18:20;;;;;;;0.00;0.00;;;14.90;99.90;;;;;;6697747;21;20001;-88
2024/04/09 11:21:06;;;;;;;0.00;0.00;;;15.00;99.90;;;;;;6696542;21;20006;-88
2024/04/09 11:23:31;;;;;;;0.00;0.00;;;15.10;99.90;;;;;;6690535;21;20384;-89
2024/04/09 11:25:59;;;;;;;0.00;0.00;;;14.90;99.90;;;;;;6696535;21;19990;-89
2024/04/09 11:28:24;;;;;;;0.00;0.00;;;;;;;;;;6695235;21;19998;-88
2024/04/09 11:30:52;;;;;;;0.00;0.00;;;;;;;;;;6696220;21;20039;-87
2024/04/09 11:33:18;;;;;;;0.00;0.00;;;14.80;99.90;;;;;;6695020;21;19994;-88
2024/04/09 11:35:45;;;;;;;0.00;0.00;;;;;;;;;;6693767;21;19986;-87
2024/04/09 11:38:12;;;;;;;0.00;0.00;;;14.70;99.90;;;;;;6694716;21;20009;-88
2024/04/09 11:40:38;;;;;;;0.00;0.00;;;14.50;99.90;;;;;;6695036;21;19986;-88
2024/04/09 11:43:04;;;;;;;0.00;0.00;;;;;;;;;;6694573;21;20343;-88
2024/04/09 11:45:32;;;;;;;0.00;0.00;;;14.60;99.90;;;;;;6694271;21;19987;-86
2024/04/09 11:47:58;;;;;;;0.00;0.00;;;14.50;99.90;;;;;;6694390;21;20287;-88
2024/04/09 11:50:25;;;;;;;0.00;0.00;;;14.40;99.90;;;;;;6695424;21;20005;-88
2024/04/09 11:52:51;;;;;;;0.00;0.00;;;14.30;99.90;;;;;;6694317;21;19986;-88
2024/04/09 11:55:17;;;;;;;0.00;0.00;;;;;;;;;;6695277;21;19996;-86
2024/04/09 11:57:44;;;;;;;0.00;0.00;;;14.10;99.90;;;;;;6695688;21;20045;-88
2024/04/09 12:00:13;;;;;;;0.00;0.00;;;14.10;99.90;;;;;;6696177;21;19997;-88
2024/04/09 12:02:43;;;;;;;0.00;0.00;;;14.00;99.90;;;;;;6695456;21;20002;-88
2024/04/09 12:05:10;;;;;;;0.00;0.00;;;14.00;99.90;;;;;;6697953;21;20241;-88
2024/04/09 12:07:37;;;;;;;0.00;0.00;;;13.90;99.90;;;;;;6699385;21;20365;-88
2024/04/09 12:10:04;;;;;;;0.00;0.00;;;13.90;99.90;;;;;;6696872;21;19990;-87
2024/04/09 12:12:30;;;;;;;0.00;0.00;;;13.90;99.90;;;;;;6695131;21;19998;-88
2024/04/09 12:14:56;;;;;;;0.00;0.00;;;;;;;;;;6741469;21;20009;-89
2024/04/09 12:17:22;;;;;;;0.00;0.00;;;13.90;99.90;;;;;;6691929;21;20419;-88
2024/04/09 12:19:47;;;;;;;0.00;0.00;;;;;;;;;;6692222;21;20006;-88
2024/04/09 12:22:16;;;;;;;0.00;0.00;;;;;;;;;;6741208;21;19994;-88
2024/04/09 12:24:42;;;;;;;0.00;0.00;;;;;;;;;;6692569;21;20005;-89
2024/04/09 12:27:08;;;;;;;0.00;0.00;;;13.90;99.90;;;;;;6692143;21;20078;-88
2024/04/09 12:29:34;;;;;;;0.00;0.00;;;;;;;;;;6692944;21;20060;-88
2024/04/09 12:32:00;;;;;;;0.00;0.00;;;;;;;;;;6693167;21;19998;-88
2024/04/09 12:34:29;;;;;;;0.08;0.08;;;14.00;99.90;;;;;;6691922;21;19998;-87
2024/04/09 12:36:54;;;;;;;0.00;0.00;;;;;;;;;;6692993;21;19999;-89
2024/04/09 12:39:20;;;;;;;0.00;0.00;;;13.80;99.90;;;;;;6691391;21;20074;-88
2024/04/09 12:41:46;;;;;;;0.00;0.00;;;;;;;;;;6691903;21;20071;-86
2024/04/09 12:44:12;;;;;;;0.00;0.00;;;13.60;99.90;;;;;;6692690;21;19998;-88
2024/04/09 12:46:38;;;;;;;0.00;0.00;;;;;;;;;;6691679;21;20062;-89
2024/04/09 17:21:13;;;;;;;0.00;0.00;;;;;;;;;;6709452;21;20033;-87
2024/04/09 17:23:39;;;;;;;0.00;0.00;;;;;;;;;;6665251;21;20027;-88
2024/04/09 17:26:07;;;;;;;0.00;0.00;;;;;;;;;;6665749;21;19999;-88
2024/04/09 17:28:33;;;;;;;0.00;0.00;;;;;;;;;;6665366;21;19987;-88
2024/04/09 17:30:59;;;;;;;0.00;0.00;;;;;;;;;;6665164;21;20006;-88
2024/04/09 17:33:25;;;;;;;0.00;0.00;;;;;;;;;;6665566;21;20009;-89
2024/04/09 17:35:52;;;;;;;0.00;0.00;;;;;;;;;;6667403;21;20018;-89
2024/04/09 17:38:18;;;;;;;0.00;0.00;;;;;;;;;;6666343;21;19987;-89
2024/04/09 17:40:44;;;;;;;0.00;0.00;;;;;;;;;;6665179;21;19999;-90
2024/04/09 17:43:10;;;;;;;0.00;0.00;;;;;;;;;;6665216;21;19987;-89
2024/04/09 17:45:37;;;;;;;0.00;0.00;;;;;;;;;;6643765;21;20003;-90
2024/04/09 17:48:04;;;;;;;0.00;0.00;;;;;;;;;;6665847;21;19987;-89
2024/04/09 17:50:32;;;;;;;0.00;0.00;;;;;;;;;;6665687;21;20019;-90
2024/04/09 17:52:58;;;;;;;0.00;0.00;;;;;;;;;;6665648;21;19987;-88
2024/04/09 22:31:52;;;;;;;0.00;0.00;;;;;;;;;;6743470;21;20261;-90